createdAt,value
2019-06-08T00:02:52.275Z,19.00
2019-06-08T00:05:48.922Z,19.10
2019-06-08T00:08:45.111Z,19.30
2019-06-08T00:11:45.036Z,19.50
2019-06-08T00:14:41.476Z,19.60
2019-06-08T00:17:39.227Z,19.70
2019-06-08T00:20:35.366Z,19.70
2019-06-08T00:23:31.301Z,19.70
2019-06-08T00:26:26.878Z,19.70
2019-06-08T00:29:22.831Z,19.70
2019-06-08T00:32:20.341Z,19.80
2019-06-08T00:35:17.161Z,19.70
2019-06-08T00:38:14.765Z,19.70
2019-06-08T00:41:11.161Z,19.60
2019-06-08T00:44:08.024Z,19.40
2019-06-08T00:47:03.516Z,19.40
2019-06-08T00:49:59.209Z,19.20
2019-06-08T00:52:55.634Z,19.10
2019-06-08T00:55:51.257Z,18.90
2019-06-08T00:58:47.615Z,18.70
2019-06-08T01:01:43.061Z,18.60
2019-06-08T01:04:38.653Z,18.50
2019-06-08T01:07:34.854Z,18.50
2019-06-08T01:10:31.572Z,18.40
2019-06-08T01:13:27.008Z,18.40
2019-06-08T01:16:23.531Z,18.40
2019-06-08T01:19:19.353Z,18.40
2019-06-08T01:22:15.942Z,18.30
2019-06-08T01:25:12.205Z,18.30
2019-06-08T01:28:11.054Z,18.40
2019-06-08T01:31:07.623Z,18.30
2019-06-08T01:34:04.096Z,18.20
2019-06-08T01:36:59.627Z,18.10
2019-06-08T01:39:56.799Z,18.10
2019-06-08T01:42:53.400Z,18.10
2019-06-08T01:45:49.923Z,18.00
2019-06-08T01:48:45.425Z,18.00
2019-06-08T01:51:41.917Z,18.00
2019-06-08T01:54:37.558Z,17.90
2019-06-08T01:57:33.835Z,17.80
2019-06-08T02:00:37.614Z,17.70
2019-06-08T02:03:30.271Z,17.70
2019-06-08T02:06:26.311Z,17.70
2019-06-08T02:09:21.661Z,17.70
2019-06-08T02:12:17.922Z,17.60
2019-06-08T02:15:17.310Z,17.60
2019-06-08T02:18:13.161Z,17.70
2019-06-08T02:21:08.878Z,17.70
2019-06-08T02:24:05.536Z,17.70
2019-06-08T02:27:01.138Z,17.70
2019-06-08T02:29:56.613Z,17.70
2019-06-08T02:32:52.012Z,17.70
2019-06-08T02:35:48.664Z,17.70
2019-06-08T02:38:44.273Z,17.70
2019-06-08T02:41:41.028Z,17.70
2019-06-08T02:44:37.476Z,17.70
2019-06-08T02:47:34.503Z,17.60
2019-06-08T02:50:59.600Z,17.50
2019-06-08T02:53:55.565Z,17.30
2019-06-08T02:56:54.910Z,17.10
2019-06-08T02:59:53.415Z,16.90
2019-06-08T03:02:51.175Z,16.70
2019-06-08T03:05:46.723Z,16.60
2019-06-08T03:08:44.071Z,16.60
2019-06-08T03:11:41.342Z,16.50
2019-06-08T03:14:37.672Z,16.40
2019-06-08T03:17:35.597Z,16.40
2019-06-08T03:20:32.081Z,16.40
2019-06-08T03:23:29.996Z,16.40
2019-06-08T03:26:26.502Z,16.40
2019-06-08T03:29:22.821Z,16.40
2019-06-08T03:32:19.125Z,16.40
2019-06-08T03:35:14.537Z,16.40
2019-06-08T03:38:10.601Z,15.20
2019-06-08T03:41:06.014Z,16.50
2019-06-08T03:44:02.491Z,16.60
2019-06-08T03:46:58.098Z,16.60
2019-06-08T03:49:57.867Z,16.70
2019-06-08T03:52:54.323Z,15.40
2019-06-08T03:55:50.864Z,16.70
2019-06-08T03:58:48.032Z,17.80
2019-06-08T04:01:46.178Z,16.70
2019-06-08T04:04:41.834Z,16.70
2019-06-08T04:07:42.194Z,16.70
2019-06-08T04:10:42.690Z,16.70
2019-06-08T04:13:41.465Z,16.70
2019-06-08T04:16:38.246Z,16.70
2019-06-08T04:19:34.655Z,16.50
2019-06-08T04:22:30.089Z,16.50
2019-06-08T04:25:26.495Z,16.50
2019-06-08T04:28:22.109Z,16.50
2019-06-08T04:31:18.705Z,16.50
2019-06-08T04:34:15.061Z,16.60
2019-06-08T04:37:10.613Z,16.70
2019-06-08T04:40:08.731Z,16.80
2019-06-08T04:43:04.918Z,16.80
2019-06-08T04:46:01.480Z,16.80
2019-06-08T04:48:57.917Z,16.80
2019-06-08T04:51:54.307Z,16.80
2019-06-08T04:54:50.785Z,16.90
2019-06-08T04:57:48.625Z,17.00
2019-06-08T05:00:45.729Z,17.00
2019-06-08T05:03:43.146Z,17.10
2019-06-08T05:06:39.020Z,17.20
2019-06-08T05:09:34.741Z,17.30
2019-06-08T05:12:30.050Z,17.40
2019-06-08T05:15:25.889Z,17.50
2019-06-08T05:18:25.877Z,17.50
2019-06-08T05:21:19.702Z,17.60
2019-06-08T05:24:15.383Z,17.60
2019-06-08T05:27:10.930Z,17.50
2019-06-08T05:30:08.956Z,17.40
2019-06-08T05:33:04.936Z,17.30
2019-06-08T05:36:01.179Z,17.30
2019-06-08T05:38:56.736Z,17.30
2019-06-08T05:41:52.104Z,17.50
2019-06-08T05:44:50.094Z,17.70
2019-06-08T05:47:47.949Z,17.80
2019-06-08T05:50:56.927Z,18.00
2019-06-08T05:53:41.695Z,18.00
2019-06-08T05:56:38.132Z,18.00
2019-06-08T05:59:36.652Z,17.90
2019-06-08T06:02:32.038Z,17.90
2019-06-08T06:05:27.886Z,17.90
2019-06-08T06:08:24.255Z,17.90
2019-06-08T06:11:21.093Z,18.00
2019-06-08T06:14:16.760Z,18.00
2019-06-08T06:17:13.254Z,18.20
2019-06-08T06:20:10.161Z,18.40
2019-06-08T06:23:06.750Z,18.40
2019-06-08T06:26:03.309Z,18.40
2019-06-08T06:28:58.658Z,18.30
2019-06-08T06:31:54.304Z,18.30
2019-06-08T06:34:52.044Z,18.30
2019-06-08T06:37:48.356Z,18.30
2019-06-08T06:40:44.021Z,18.50
2019-06-08T06:43:42.126Z,18.70
2019-06-08T06:46:37.487Z,18.80
2019-06-08T06:49:32.639Z,18.90
2019-06-08T06:52:29.118Z,19.00
2019-06-08T06:55:25.567Z,19.30
2019-06-08T06:58:21.779Z,19.60
2019-06-08T07:01:17.644Z,19.80
2019-06-08T07:04:13.986Z,19.70
2019-06-08T07:07:10.369Z,19.60
2019-06-08T07:10:07.087Z,19.40
2019-06-08T07:13:03.451Z,19.30
2019-06-08T07:16:16.909Z,19.30
2019-06-08T07:18:58.683Z,19.10
2019-06-08T07:21:54.802Z,19.00
2019-06-08T07:24:52.597Z,19.10
2019-06-08T07:27:48.483Z,19.30
2019-06-08T07:30:45.075Z,19.20
2019-06-08T07:33:40.307Z,19.20
2019-06-08T07:36:35.734Z,19.40
2019-06-08T07:39:30.961Z,19.40
2019-06-08T07:42:27.419Z,19.50
2019-06-08T07:45:24.775Z,19.50
2019-06-08T07:48:22.321Z,19.60
2019-06-08T07:51:18.699Z,19.70
2019-06-08T07:54:15.081Z,19.70
2019-06-08T07:57:11.512Z,19.90
2019-06-08T08:00:09.776Z,20.20
2019-06-08T08:03:06.441Z,20.50
2019-06-08T08:06:02.670Z,20.00
2019-06-08T08:08:59.373Z,20.10
2019-06-08T08:11:55.200Z,20.30
2019-06-08T08:14:53.176Z,20.50
2019-06-08T08:17:49.115Z,20.40
2019-06-08T08:20:45.740Z,20.40
2019-06-08T08:23:41.168Z,20.40
2019-06-08T08:26:39.133Z,20.10
2019-06-08T08:29:38.035Z,19.80
2019-06-08T08:32:33.210Z,19.50
2019-06-08T08:35:29.446Z,19.30
2019-06-08T08:38:27.291Z,18.90
2019-06-08T08:41:23.077Z,18.80
2019-06-08T08:44:21.575Z,18.90
2019-06-08T08:47:18.836Z,18.80
2019-06-08T08:50:15.731Z,18.90
2019-06-08T08:53:12.259Z,19.00
2019-06-08T08:56:08.021Z,19.10
2019-06-08T08:59:04.665Z,19.10
2019-06-08T09:02:02.575Z,19.10
2019-06-08T09:05:02.892Z,19.20
2019-06-08T09:07:56.380Z,19.40
2019-06-08T09:10:53.395Z,19.50
2019-06-08T09:13:51.930Z,19.50
2019-06-08T09:16:48.281Z,19.50
2019-06-08T09:19:44.242Z,19.50
2019-06-08T09:22:52.990Z,19.50
2019-06-08T09:25:40.381Z,19.60
2019-06-08T09:28:34.837Z,19.60
2019-06-08T09:31:30.897Z,19.60
2019-06-08T09:34:28.261Z,19.70
2019-06-08T09:37:23.783Z,19.60
2019-06-08T09:40:19.759Z,19.50
2019-06-08T09:43:18.714Z,19.40
2019-06-08T09:46:17.863Z,19.30
2019-06-08T09:49:14.716Z,19.30
2019-06-08T09:52:10.303Z,19.40
2019-06-08T09:55:09.190Z,19.40
2019-06-08T09:58:08.465Z,19.40
2019-06-08T10:01:03.757Z,19.40
2019-06-08T10:04:02.048Z,19.50
2019-06-08T10:06:56.844Z,19.60
2019-06-08T10:09:54.675Z,19.70
2019-06-08T10:12:50.105Z,19.70
2019-06-08T10:15:51.233Z,19.70
2019-06-08T10:18:43.196Z,19.70
2019-06-08T10:21:42.994Z,19.50
2019-06-08T10:24:41.161Z,19.40
2019-06-08T10:27:34.209Z,19.60
2019-06-08T10:30:30.375Z,19.90
2019-06-08T10:33:28.172Z,20.00
2019-06-08T10:36:24.949Z,20.00
2019-06-08T10:39:21.654Z,20.30
2019-06-08T10:42:18.157Z,20.80
2019-06-08T10:45:18.463Z,21.70
2019-06-08T10:48:12.857Z,23.10
2019-06-08T10:51:11.228Z,23.70
2019-06-08T10:54:11.458Z,24.30
2019-06-08T10:57:09.932Z,23.60
2019-06-08T11:00:18.158Z,23.20
2019-06-08T11:03:09.328Z,22.30
2019-06-08T11:06:04.849Z,22.40
2019-06-08T11:09:06.097Z,24.10
2019-06-08T11:12:01.499Z,24.50
2019-06-08T11:14:59.300Z,25.00
2019-06-08T11:17:55.151Z,24.60
2019-06-08T11:20:51.538Z,24.40
2019-06-08T11:24:04.643Z,24.40
2019-06-08T11:26:44.198Z,24.50
2019-06-08T11:29:39.783Z,24.90
2019-06-08T11:32:38.368Z,25.00
2019-06-08T11:35:35.146Z,25.60
2019-06-08T11:38:32.019Z,26.30
2019-06-08T11:41:28.412Z,26.40
2019-06-08T11:44:27.444Z,26.10
2019-06-08T11:47:22.397Z,25.60
2019-06-08T11:50:41.504Z,25.90
2019-06-08T11:53:40.749Z,26.30
2019-06-08T11:56:40.380Z,26.50
2019-06-08T11:59:38.975Z,26.70
2019-06-08T12:02:35.538Z,26.50
2019-06-08T12:05:32.221Z,26.80
2019-06-08T12:08:28.827Z,27.30
2019-06-08T12:11:25.238Z,26.80
2019-06-08T12:14:20.953Z,26.60
2019-06-08T12:17:21.791Z,25.60
2019-06-08T12:20:17.556Z,25.50
2019-06-08T12:23:12.073Z,26.40
2019-06-08T12:26:10.204Z,26.10
2019-06-08T12:29:09.360Z,25.30
2019-06-08T12:32:04.680Z,24.50
2019-06-08T12:35:00.828Z,24.20
2019-06-08T12:37:58.495Z,24.00
2019-06-08T12:40:55.143Z,23.70
2019-06-08T12:43:50.862Z,23.40
2019-06-08T12:46:48.509Z,23.00
2019-06-08T12:49:48.268Z,23.30
2019-06-08T12:52:43.294Z,24.30
2019-06-08T12:55:39.623Z,25.40
2019-06-08T12:58:38.529Z,25.70
2019-06-08T13:01:34.463Z,25.90
2019-06-08T13:04:30.729Z,26.00
2019-06-08T13:07:28.160Z,26.10
2019-06-08T13:10:24.658Z,25.60
2019-06-08T13:13:24.464Z,25.20
2019-06-08T13:16:23.636Z,25.00
2019-06-08T13:19:15.960Z,24.90
2019-06-08T13:22:12.813Z,25.20
2019-06-08T13:25:23.891Z,24.90
2019-06-08T13:28:10.913Z,25.10
2019-06-08T13:31:05.016Z,25.70
2019-06-08T13:34:01.902Z,26.40
2019-06-08T13:36:58.089Z,27.20
2019-06-08T13:39:54.409Z,27.80
2019-06-08T13:42:51.356Z,28.10
2019-06-08T13:45:48.556Z,28.10
2019-06-08T13:48:45.525Z,28.20
2019-06-08T13:51:42.128Z,28.40
2019-06-08T13:54:38.272Z,28.20
2019-06-08T13:57:34.033Z,27.90
2019-06-08T14:00:38.319Z,27.50
2019-06-08T14:03:33.675Z,26.90
2019-06-08T14:06:29.990Z,27.10
2019-06-08T14:09:28.532Z,27.10
2019-06-08T14:12:28.259Z,27.00
2019-06-08T14:15:23.362Z,26.60
2019-06-08T14:18:24.745Z,26.50
2019-06-08T14:21:21.437Z,26.40
2019-06-08T14:24:18.231Z,26.30
2019-06-08T14:27:12.806Z,25.90
2019-06-08T14:30:13.393Z,25.40
2019-06-08T14:33:09.353Z,25.40
2019-06-08T14:36:07.965Z,25.50
2019-06-08T14:39:04.381Z,25.60
2019-06-08T14:42:02.164Z,25.70
2019-06-08T14:44:58.413Z,25.50
2019-06-08T14:47:54.931Z,25.10
2019-06-08T14:50:50.527Z,25.00
2019-06-08T14:53:48.591Z,25.20
2019-06-08T14:56:45.378Z,25.10
2019-06-08T14:59:40.823Z,25.00
2019-06-08T15:02:37.891Z,24.70
2019-06-08T15:05:35.919Z,24.50
2019-06-08T15:08:32.436Z,24.40
2019-06-08T15:11:34.759Z,24.30
2019-06-08T15:14:29.275Z,24.30
2019-06-08T15:17:23.777Z,24.20
2019-06-08T15:20:20.459Z,23.90
2019-06-08T15:23:21.240Z,24.00
2019-06-08T15:26:26.259Z,24.00
2019-06-08T15:29:13.313Z,24.20
2019-06-08T15:32:08.881Z,24.00
2019-06-08T15:35:08.137Z,23.80
2019-06-08T15:38:04.212Z,23.50
2019-06-08T15:40:59.434Z,23.50
2019-06-08T15:43:57.495Z,23.70
2019-06-08T15:46:51.977Z,23.60
2019-06-08T15:49:50.457Z,23.50
2019-06-08T15:52:47.999Z,23.40
2019-06-08T15:55:43.023Z,23.30
2019-06-08T15:58:40.474Z,23.30
2019-06-08T16:01:35.824Z,23.10
2019-06-08T16:04:32.008Z,23.00
2019-06-08T16:07:31.285Z,23.10
2019-06-08T16:10:26.340Z,23.10
2019-06-08T16:13:26.703Z,22.90
2019-06-08T16:16:23.151Z,22.80
2019-06-08T16:19:20.082Z,22.80
2019-06-08T16:22:16.332Z,22.80
2019-06-08T16:25:12.956Z,22.70
2019-06-08T16:28:08.980Z,22.80
2019-06-08T16:31:05.659Z,22.70
2019-06-08T16:34:02.001Z,22.60
2019-06-08T16:36:58.540Z,22.50
2019-06-08T16:39:54.208Z,22.50
2019-06-08T16:42:51.092Z,22.40
2019-06-08T16:45:46.350Z,22.30
2019-06-08T16:48:42.479Z,22.30
2019-06-08T16:51:37.932Z,22.40
2019-06-08T16:54:37.247Z,22.40
2019-06-08T16:57:37.670Z,22.40
2019-06-08T17:00:36.800Z,22.50
2019-06-08T17:03:30.713Z,22.40
2019-06-08T17:06:27.380Z,22.30
2019-06-08T17:09:22.920Z,22.30
2019-06-08T17:12:26.164Z,22.20
2019-06-08T17:15:27.445Z,22.10
2019-06-08T17:18:24.214Z,22.10
2019-06-08T17:21:20.934Z,22.00
2019-06-08T17:24:16.750Z,21.90
2019-06-08T17:27:25.902Z,21.90
2019-06-08T17:30:09.681Z,21.80
2019-06-08T17:33:06.004Z,21.80
2019-06-08T17:36:02.398Z,21.70
2019-06-08T17:38:58.838Z,21.70
2019-06-08T17:41:55.170Z,21.70
2019-06-08T17:44:51.602Z,21.60
2019-06-08T17:47:47.976Z,21.60
2019-06-08T17:50:44.115Z,21.40
2019-06-08T17:53:39.511Z,21.40
2019-06-08T17:56:37.141Z,21.30
2019-06-08T17:59:33.527Z,21.30
2019-06-08T18:02:31.511Z,21.20
2019-06-08T18:05:28.490Z,21.20
2019-06-08T18:08:25.263Z,21.10
2019-06-08T18:11:21.930Z,21.00
2019-06-08T18:14:19.349Z,21.00
2019-06-08T18:17:15.409Z,20.90
2019-06-08T18:20:14.033Z,20.80
2019-06-08T18:23:10.665Z,19.40
2019-06-08T18:26:07.811Z,20.70
2019-06-08T18:29:04.323Z,20.70
2019-06-08T18:32:00.594Z,20.70
2019-06-08T18:34:57.302Z,20.70
2019-06-08T18:37:54.087Z,20.60
2019-06-08T18:40:53.043Z,20.40
2019-06-08T18:43:52.519Z,20.20
2019-06-08T18:46:48.236Z,20.00
2019-06-08T18:49:44.492Z,19.90
2019-06-08T18:52:44.927Z,19.80
2019-06-08T18:55:43.985Z,19.70
2019-06-08T18:58:40.075Z,19.60
2019-06-08T19:01:39.106Z,19.50
2019-06-08T19:04:33.111Z,19.50
2019-06-08T19:07:29.762Z,19.40
2019-06-08T19:10:32.826Z,19.30
2019-06-08T19:13:29.206Z,19.20
2019-06-08T19:16:26.225Z,19.20
2019-06-08T19:19:22.770Z,19.10
2019-06-08T19:22:19.169Z,19.00
2019-06-08T19:25:17.589Z,19.00
2019-06-08T19:28:14.184Z,18.90
2019-06-08T19:31:12.407Z,18.80
2019-06-08T19:34:08.146Z,18.70
2019-06-08T19:37:04.829Z,18.60
2019-06-08T19:40:01.724Z,18.60
2019-06-08T19:43:01.217Z,18.50
2019-06-08T19:45:58.009Z,18.40
2019-06-08T19:48:55.491Z,18.30
2019-06-08T19:51:53.932Z,17.80
2019-06-08T19:54:53.415Z,18.20
2019-06-08T19:57:48.565Z,18.10
2019-06-08T20:00:50.485Z,18.10
2019-06-08T20:03:43.042Z,18.00
2019-06-08T20:06:38.786Z,17.90
2019-06-08T20:09:37.514Z,17.80
2019-06-08T20:12:37.346Z,17.70
2019-06-08T20:15:33.517Z,17.70
2019-06-08T20:18:29.020Z,17.60
2019-06-08T20:21:27.380Z,17.60
2019-06-08T20:24:22.454Z,17.50
2019-06-08T20:27:18.982Z,17.40
2019-06-08T20:30:17.273Z,17.40
2019-06-08T20:33:12.934Z,17.20
2019-06-08T20:36:08.855Z,17.10
2019-06-08T20:39:07.467Z,17.10
2019-06-08T20:42:03.889Z,17.00
2019-06-08T20:45:00.442Z,17.00
2019-06-08T20:47:58.408Z,17.00
2019-06-08T20:50:54.274Z,17.00
2019-06-08T20:53:50.879Z,16.90
2019-06-08T20:56:49.382Z,16.90
2019-06-08T20:59:45.661Z,16.80
2019-06-08T21:02:41.222Z,16.70
2019-06-08T21:05:58.263Z,16.70
2019-06-08T21:08:57.940Z,16.70
2019-06-08T21:11:55.652Z,16.70
2019-06-08T21:14:55.510Z,16.60
2019-06-08T21:17:53.518Z,16.60
2019-06-08T21:20:51.151Z,16.40
2019-06-08T21:23:51.695Z,16.40
2019-06-08T21:26:46.167Z,16.30
2019-06-08T21:29:49.392Z,16.20
2019-06-08T21:32:40.187Z,16.20
2019-06-08T21:35:37.098Z,16.10
2019-06-08T21:38:34.408Z,16.10
2019-06-08T21:41:31.102Z,16.10
2019-06-08T21:44:27.852Z,16.00
2019-06-08T21:47:23.327Z,15.80
2019-06-08T21:50:19.953Z,15.80
2019-06-08T21:53:18.114Z,15.70
2019-06-08T21:56:14.652Z,15.60
2019-06-08T21:59:10.307Z,15.50
2019-06-08T22:02:08.652Z,15.50
2019-06-08T22:05:08.235Z,15.50
2019-06-08T22:08:04.766Z,15.40
2019-06-08T22:11:01.078Z,15.30
2019-06-08T22:13:59.658Z,15.30
2019-06-08T22:16:59.510Z,15.40
2019-06-08T22:19:53.138Z,15.40
2019-06-08T22:22:51.830Z,15.30
2019-06-08T22:25:48.083Z,15.20
2019-06-08T22:28:45.451Z,15.20
2019-06-08T22:31:42.104Z,15.10
2019-06-08T22:34:38.800Z,15.00
2019-06-08T22:37:34.768Z,14.90
2019-06-08T22:40:30.392Z,14.90
2019-06-08T22:43:28.628Z,14.80
2019-06-08T22:46:24.040Z,14.80
2019-06-08T22:49:20.213Z,14.80
2019-06-08T22:52:15.526Z,14.80
2019-06-08T22:55:12.225Z,14.80
2019-06-08T22:58:08.840Z,14.70
2019-06-08T23:01:08.610Z,14.70
2019-06-08T23:04:04.344Z,14.60
2019-06-08T23:07:03.157Z,14.60
2019-06-08T23:10:03.815Z,14.50
2019-06-08T23:13:00.722Z,14.50
2019-06-08T23:15:57.862Z,14.50
2019-06-08T23:18:52.345Z,14.50
2019-06-08T23:21:48.638Z,14.30
2019-06-08T23:24:45.089Z,14.30
2019-06-08T23:27:42.578Z,14.30
2019-06-08T23:30:38.431Z,14.30
2019-06-08T23:33:35.136Z,14.30
2019-06-08T23:36:46.620Z,14.30
2019-06-08T23:39:30.268Z,14.30
2019-06-08T23:42:28.868Z,14.30
2019-06-08T23:45:27.207Z,14.30
2019-06-08T23:48:24.062Z,14.30
2019-06-08T23:51:20.476Z,14.30
2019-06-08T23:54:18.407Z,14.20
2019-06-08T23:57:14.125Z,14.20
